Nearby METAR Reports

 

KSNK - Snyder/Winston, Texas, USA
Distance from station: SSE 25mi, 41km
Updated: Tue, 23-Jul-2019 2:15am CDT
Clear
Clear
 Wind from ENE
Wind: ENE 8 mph , 13 km/h
Temperature: 75°F , 24°C
Dew Point: 63°F , 17°C
Humidity: 65%
Barometer: 30.23 inHg , 1023.7 hPa
Clouds: Clear
Visibility: 10 miles , 16 km
2019/07/23 07:15 KSNK 230715Z AUTO 06007KT 10SM CLR 24/17 A3023 RMK AO2 T02410168
KSWW - Sweetwater, Texas, USA
Distance from station: SE 56mi, 90km
Updated: Tue, 23-Jul-2019 1:55am CDT
Clear
Clear
 Wind from NE
Wind: NE 5 mph , 7 km/h
Temperature: 73°F , 23°C
Dew Point: 63°F , 17°C
Humidity: 69%
Barometer: 30.24 inHg , 1024 hPa
Clouds: Clear
Visibility: 10 miles , 16 km
2019/07/23 06:55 KSWW 230655Z AUTO 04004KT 10SM CLR 23/17 A3024 RMK AO2 T02310172
 
KLBB - Lubbock, Texas, USA
Distance from station: NW 59mi, 94km
Updated: Tue, 23-Jul-2019 1:53am CDT
Partly cloudy
Partly cloudy
 Wind from ENE
Wind: ENE 8 mph , 13 km/h
Temperature: 70°F , 21°C
Dew Point: 61°F , 16°C
Humidity: 73%
Barometer: 30.29 inHg , 1025.7 hPa
Clouds: Partly cloudy
Visibility: 10 miles , 16 km
Cloud details: Few Clouds 10000 ft
Partly cloudy 25000 ft
2019/07/23 06:53 KLBB 230653Z 06007KT 10SM FEW100 SCT250 21/16 A3029 RMK AO2 SLP209 T02110161 $
KPVW - Plainview, Texas, USA
Distance from station: NNW 85mi, 137km
Updated: Tue, 23-Jul-2019 1:55am CDT
Clear
Clear
 Wind from E
Wind: E 6 mph , 9 km/h
Temperature: 64°F , 18°C
Dew Point: 55°F , 13°C
Humidity: 73%
Barometer: 30.32 inHg , 1026.8 hPa
Clouds: Clear
Visibility: 10 miles , 16 km
2019/07/23 06:55 KPVW 230655Z AUTO 08005KT 10SM CLR 18/13 A3032 RMK AO2 T01820133
 
KDYS - Dyess Afb/Abilen, Texas, USA
Distance from station: ESE 88mi, 141km
Updated: Tue, 23-Jul-2019 1:56am CDT
Clear
Clear
 Wind from NE
Wind: NE 8 mph , 13 km/h
Temperature: 75°F , 24°C
Dew Point: 61°F , 16°C
Humidity: 61%
Barometer: 30.18 inHg , 1022 hPa
Clouds: Clear
Visibility: 10 miles , 16 km
2019/07/23 06:56 KDYS 230656Z AUTO 05007KT 10SM CLR 24/16 A3018 RMK AO2 SLP170 T02390162 PNO FZRANO $
KGNC - Seminole, Texas, USA
Distance from station: WSW 89mi, 144km
Updated: Tue, 23-Jul-2019 1:55am CDT
Mostly cloudy
Mostly cloudy
 Wind from NE
Wind: NE 6 mph , 9 km/h
Temperature: 70°F , 21°C
Dew Point: 66°F , 19°C
Humidity: 88%
Barometer: 30.32 inHg , 1026.8 hPa
Clouds: Mostly cloudy
Visibility: 10 miles , 16 km
Cloud details: Mostly cloudy 4800 ft
2019/07/23 06:55 KGNC 230655Z AUTO 04005KT 10SM BKN048 21/19 A3032 RMK AO2 T02050186
 
KE11 - Andrews, Texas, USA
Distance from station: WSW 93mi, 149km
Updated: Tue, 23-Jul-2019 1:55am CDT
Clear
Clear
 Wind from NNE
Wind: NNE 5 mph , 7 km/h
Temperature: 68°F , 20°C
Dew Point: 68°F , 20°C
Humidity: 100%
Barometer: 30.27 inHg , 1025.1 hPa
Clouds: Clear
Visibility: 10 miles , 16 km
2019/07/23 06:55 KE11 230655Z AUTO 02004KT 10SM CLR 20/20 A3027 RMK AO2 LTG DSNT S T02000200
KABI - Abilene, Texas, USA
Distance from station: ESE 96mi, 154km
Updated: Tue, 23-Jul-2019 1:52am CDT
Clear
Clear
 Wind from NE
Wind: NE 6 mph , 9 km/h
Temperature: 75°F , 24°C
Dew Point: 66°F , 19°C
Humidity: 74%
Barometer: 30.18 inHg , 1022 hPa
Clouds: Clear
Visibility: 10 miles , 16 km
2019/07/23 06:52 KABI 230652Z 04005KT 10SM CLR 24/19 A3018 RMK AO2 SLP191 T02390194
 
KMAF - Midland, Texas, USA
Distance from station: SW 96mi, 154km
Updated: Tue, 23-Jul-2019 1:53am CDT
Clear
Clear
 Wind from N
Wind: N 7 mph , 11 km/h
Temperature: 70°F , 21°C
Dew Point: 68°F , 20°C
Humidity: 94%
Barometer: 30.23 inHg , 1023.7 hPa
Clouds: Clear
Visibility: 10 miles , 16 km
2019/07/23 06:53 KMAF 230653Z AUTO 35006KT 10SM CLR 21/20 A3023 RMK AO2 SLP187 T02110200
KCDS - Childress, Texas, USA
Distance from station: NNE 110mi, 177km
Updated: Tue, 23-Jul-2019 1:53am CDT
Clear
Clear
 Wind from ENE
Wind: ENE 6 mph , 9 km/h
Temperature: 73°F , 23°C
Dew Point: 55°F , 13°C
Humidity: 53%
Barometer: 30.25 inHg , 1024.4 hPa
Clouds: Clear
Visibility: 10 miles , 16 km
2019/07/23 06:53 KCDS 230653Z AUTO 07005KT 10SM CLR 23/13 A3025 RMK AO2 SLP216 T02330128
 
KSJT - San Angelo, Texas, USA
Distance from station: SSE 121mi, 194km
Updated: Tue, 23-Jul-2019 1:51am CDT
Mostly cloudy
Mostly cloudy
 Wind from NE
Wind: NE 9 mph , 15 km/h
Temperature: 79°F , 26°C
Dew Point: 66°F , 19°C
Humidity: 65%
Barometer: 30.15 inHg , 1021 hPa
Clouds: Mostly cloudy
Visibility: 10 miles , 16 km
Cloud details: Mostly cloudy 4500 ft
Mostly cloudy 5500 ft
2019/07/23 06:51 KSJT 230651Z AUTO 05008KT 10SM BKN045 BKN055 26/19 A3015 RMK AO2 SLP181 T02610189
KHOB - Hobbs/Lea Co., New Mexico, USA
Distance from station: WSW 122mi, 196km
Updated: Tue, 23-Jul-2019 1:15am CDT
Few Clouds
Few Clouds
 Wind from calm
Wind: Calm
Temperature: 68°F , 20°C
Dew Point: 64°F , 18°C
Humidity: 88%
Barometer: 30.29 inHg , 1025.7 hPa
Clouds: Few Clouds
Visibility: 10 miles , 16 km
Cloud details: Few Clouds 5500 ft
Few Clouds 12000 ft
2019/07/23 06:15 KHOB 230615Z AUTO 00000KT 10SM FEW055 FEW120 20/18 A3029 RMK AO2
 
KCOM - Coleman Muni, Texas, USA
Distance from station: SE 131mi, 212km
Updated: Tue, 23-Jul-2019 1:55am CDT
Clear
Clear
 Wind from NNE
Wind: NNE 9 mph , 15 km/h
Temperature: 75°F , 24°C
Dew Point: 64°F , 18°C
Humidity: 69%
Barometer: 30.16 inHg , 1021.3 hPa
Clouds: Clear
Visibility: 10 miles , 16 km
2019/07/23 06:55 KCOM 230655Z AUTO 03008KT 10SM CLR 24/18 A3016 RMK AO2 T02410176
KBKD - Breckenridge, Texas, USA
Distance from station: E 134mi, 215km
Updated: Tue, 23-Jul-2019 1:55am CDT
Clear
Clear
 
Temperature: 75°F , 24°C
Dew Point: 63°F , 17°C
Humidity: 65%
Barometer: 30.16 inHg , 1021.3 hPa
Clouds: Clear
Visibility: 7 miles , 11 km
2019/07/23 06:55 KBKD 230655Z AUTO 7SM CLR 24/17 A3016 RMK AO2 T02360170
 
KF05 - Vernon Wilbarger, Texas, USA
Distance from station: NE 137mi, 220km
Updated: Tue, 23-Jul-2019 2:15am CDT
Clear
Clear
 Wind from N
Wind: N 6 mph , 9 km/h
Temperature: 72°F , 22°C
Dew Point: 59°F , 15°C
Humidity: 65%
Barometer: 30.20 inHg , 1022.7 hPa
Clouds: Clear
Visibility: 10 miles , 16 km
2019/07/23 07:15 KF05 230715Z AUTO 01005KT 10SM CLR 22/15 A3020 RMK AO1 T02190146